sensor_id;sensor_type;location;lat;lon;timestamp;P1;P2;P0
55441;PMS5003;41313;58.740;50.174;2022-10-29T00:03:44;1.00;1.00;0.00
55441;PMS5003;41313;58.740;50.174;2022-10-29T00:08:48;7.00;7.00;4.00
55441;PMS5003;41313;58.740;50.174;2022-10-29T00:13:53;7.33;7.33;4.67
55441;PMS5003;41313;58.740;50.174;2022-10-29T00:18:57;4.67;4.67;4.00
55441;PMS5003;41313;58.740;50.174;2022-10-29T00:23:58;7.00;7.00;4.00
55441;PMS5003;41313;58.740;50.174;2022-10-29T00:29:00;8.67;8.67;4.00
55441;PMS5003;41313;58.740;50.174;2022-10-29T00:34:02;4.00;4.00;3.00
55441;PMS5003;41313;58.740;50.174;2022-10-29T00:39:03;6.00;6.00;3.00
55441;PMS5003;41313;58.740;50.174;2022-10-29T00:49:22;4.33;4.33;2.67
55441;PMS5003;41313;58.740;50.174;2022-10-29T00:54:24;10.00;8.67;4.67
55441;PMS5003;41313;58.740;50.174;2022-10-29T00:59:28;3.67;3.67;3.00
55441;PMS5003;41313;58.740;50.174;2022-10-29T01:04:31;1.67;1.67;1.00
55441;PMS5003;41313;58.740;50.174;2022-10-29T01:09:34;6.33;6.33;3.00
55441;PMS5003;41313;58.740;50.174;2022-10-29T01:36:53;6.00;6.00;3.33
55441;PMS5003;41313;58.740;50.174;2022-10-29T01:42:35;9.33;9.00;6.00
55441;PMS5003;41313;58.740;50.174;2022-10-29T01:47:38;4.00;4.00;1.67
55441;PMS5003;41313;58.740;50.174;2022-10-29T01:52:44;6.33;6.33;4.00
55441;PMS5003;41313;58.740;50.174;2022-10-29T01:57:48;6.00;6.00;4.00
55441;PMS5003;41313;58.740;50.174;2022-10-29T02:08:35;3.33;3.33;2.33
55441;PMS5003;41313;58.740;50.174;2022-10-29T02:14:16;3.67;3.67;3.33
55441;PMS5003;41313;58.740;50.174;2022-10-29T02:19:17;6.33;6.33;4.00
55441;PMS5003;41313;58.740;50.174;2022-10-29T02:24:19;2.33;2.33;1.67
55441;PMS5003;41313;58.740;50.174;2022-10-29T02:29:21;1.00;1.00;1.00
55441;PMS5003;41313;58.740;50.174;2022-10-29T02:34:22;5.33;3.67;3.00
55441;PMS5003;41313;58.740;50.174;2022-10-29T02:39:24;6.67;6.67;4.00
55441;PMS5003;41313;58.740;50.174;2022-10-29T02:44:25;9.33;9.33;6.00
55441;PMS5003;41313;58.740;50.174;2022-10-29T02:49:27;10.00;10.00;6.00
55441;PMS5003;41313;58.740;50.174;2022-10-29T02:54:29;4.67;4.67;3.33
55441;PMS5003;41313;58.740;50.174;2022-10-29T02:59:30;4.67;4.67;4.00
55441;PMS5003;41313;58.740;50.174;2022-10-29T03:04:32;7.33;7.33;4.67
55441;PMS5003;41313;58.740;50.174;2022-10-29T03:09:34;7.00;4.67;3.00
55441;PMS5003;41313;58.740;50.174;2022-10-29T03:14:35;3.67;3.67;1.00
55441;PMS5003;41313;58.740;50.174;2022-10-29T03:19:37;7.00;7.00;4.00
55441;PMS5003;41313;58.740;50.174;2022-10-29T03:24:38;6.33;6.33;3.33
55441;PMS5003;41313;58.740;50.174;2022-10-29T03:29:40;11.33;11.33;6.33
55441;PMS5003;41313;58.740;50.174;2022-10-29T03:34:42;9.00;9.00;6.00
55441;PMS5003;41313;58.740;50.174;2022-10-29T03:39:43;10.67;10.67;7.00
55441;PMS5003;41313;58.740;50.174;2022-10-29T03:44:45;7.00;7.00;4.00
55441;PMS5003;41313;58.740;50.174;2022-10-29T03:49:46;6.33;6.33;4.00
55441;PMS5003;41313;58.740;50.174;2022-10-29T03:54:48;1.67;1.67;1.00
55441;PMS5003;41313;58.740;50.174;2022-10-29T03:59:50;6.67;6.67;4.67
55441;PMS5003;41313;58.740;50.174;2022-10-29T04:04:51;4.00;4.00;1.67
55441;PMS5003;41313;58.740;50.174;2022-10-29T04:09:53;5.33;5.33;3.67
55441;PMS5003;41313;58.740;50.174;2022-10-29T04:14:55;4.67;4.67;1.00
55441;PMS5003;41313;58.740;50.174;2022-10-29T04:19:56;4.00;4.00;3.00
55441;PMS5003;41313;58.740;50.174;2022-10-29T04:24:57;4.67;3.67;2.33
55441;PMS5003;41313;58.740;50.174;2022-10-29T04:29:59;6.33;6.33;4.00
55441;PMS5003;41313;58.740;50.174;2022-10-29T04:35:01;3.00;3.00;1.00
55441;PMS5003;41313;58.740;50.174;2022-10-29T04:40:03;4.67;4.67;3.33
55441;PMS5003;41313;58.740;50.174;2022-10-29T04:45:06;3.67;3.00;0.67
55441;PMS5003;41313;58.740;50.174;2022-10-29T04:50:08;4.00;4.00;3.00
55441;PMS5003;41313;58.740;50.174;2022-10-29T04:55:10;10.67;10.67;5.33
55441;PMS5003;41313;58.740;50.174;2022-10-29T05:00:12;3.67;3.67;1.00
55441;PMS5003;41313;58.740;50.174;2022-10-29T05:05:15;16.33;14.67;7.67
55441;PMS5003;41313;58.740;50.174;2022-10-29T05:10:17;12.67;11.33;7.00
55441;PMS5003;41313;58.740;50.174;2022-10-29T05:15:18;20.67;19.67;8.33
55441;PMS5003;41313;58.740;50.174;2022-10-29T05:20:20;63.67;51.67;28.67
55441;PMS5003;41313;58.740;50.174;2022-10-29T05:25:22;37.00;35.33;16.00
55441;PMS5003;41313;58.740;50.174;2022-10-29T05:30:23;36.67;33.33;15.00
55441;PMS5003;41313;58.740;50.174;2022-10-29T05:35:25;24.33;24.33;12.00
55441;PMS5003;41313;58.740;50.174;2022-10-29T05:40:27;21.67;19.00;12.33
55441;PMS5003;41313;58.740;50.174;2022-10-29T05:45:29;22.67;21.67;12.33
55441;PMS5003;41313;58.740;50.174;2022-10-29T05:50:31;13.67;13.67;7.67
55441;PMS5003;41313;58.740;50.174;2022-10-29T05:55:34;9.00;9.00;6.67
55441;PMS5003;41313;58.740;50.174;2022-10-29T06:00:36;12.33;12.33;7.67
55441;PMS5003;41313;58.740;50.174;2022-10-29T06:05:40;15.00;15.00;10.00
55441;PMS5003;41313;58.740;50.174;2022-10-29T06:10:42;17.33;15.67;9.33
55441;PMS5003;41313;58.740;50.174;2022-10-29T06:15:44;19.33;19.33;12.33
55441;PMS5003;41313;58.740;50.174;2022-10-29T06:20:46;27.67;25.00;15.33
55441;PMS5003;41313;58.740;50.174;2022-10-29T06:25:47;25.67;24.00;15.33
55441;PMS5003;41313;58.740;50.174;2022-10-29T06:30:49;24.67;24.67;15.67
55441;PMS5003;41313;58.740;50.174;2022-10-29T06:35:51;16.67;16.67;11.33
55441;PMS5003;41313;58.740;50.174;2022-10-29T06:40:52;19.00;19.00;11.00
55441;PMS5003;41313;58.740;50.174;2022-10-29T06:45:54;15.33;15.33;10.67
55441;PMS5003;41313;58.740;50.174;2022-10-29T06:50:58;21.67;21.67;10.67
55441;PMS5003;41313;58.740;50.174;2022-10-29T06:56:00;16.67;15.67;10.00
55441;PMS5003;41313;58.740;50.174;2022-10-29T07:01:01;10.00;7.00;6.00
55441;PMS5003;41313;58.740;50.174;2022-10-29T07:06:03;18.33;17.33;10.67
55441;PMS5003;41313;58.740;50.174;2022-10-29T07:11:05;18.33;18.33;11.67
55441;PMS5003;41313;58.740;50.174;2022-10-29T07:16:07;19.67;19.00;12.00
55441;PMS5003;41313;58.740;50.174;2022-10-29T07:21:09;14.33;14.33;9.00
55441;PMS5003;41313;58.740;50.174;2022-10-29T07:26:10;15.00;13.00;9.00
55441;PMS5003;41313;58.740;50.174;2022-10-29T07:31:12;24.67;19.33;12.33
55441;PMS5003;41313;58.740;50.174;2022-10-29T07:36:13;21.00;21.00;10.67
55441;PMS5003;41313;58.740;50.174;2022-10-29T07:41:15;16.67;14.33;6.00
55441;PMS5003;41313;58.740;50.174;2022-10-29T07:46:17;18.67;18.67;12.33
55441;PMS5003;41313;58.740;50.174;2022-10-29T07:51:18;6.00;6.00;2.33
55441;PMS5003;41313;58.740;50.174;2022-10-29T07:56:20;9.67;9.67;6.00
55441;PMS5003;41313;58.740;50.174;2022-10-29T08:01:21;19.33;16.67;11.33
55441;PMS5003;41313;58.740;50.174;2022-10-29T08:06:23;21.67;21.33;13.00
55441;PMS5003;41313;58.740;50.174;2022-10-29T08:11:24;22.00;20.33;11.33
55441;PMS5003;41313;58.740;50.174;2022-10-29T08:16:25;29.67;29.67;16.67
55441;PMS5003;41313;58.740;50.174;2022-10-29T08:21:27;39.00;33.67;19.67
55441;PMS5003;41313;58.740;50.174;2022-10-29T08:26:28;7.67;7.67;4.00
55441;PMS5003;41313;58.740;50.174;2022-10-29T08:31:30;9.00;9.00;6.00
55441;PMS5003;41313;58.740;50.174;2022-10-29T08:36:31;15.33;13.00;7.67
55441;PMS5003;41313;58.740;50.174;2022-10-29T08:47:17;10.00;10.00;7.00
55441;PMS5003;41313;58.740;50.174;2022-10-29T08:52:25;7.00;7.00;4.67
55441;PMS5003;41313;58.740;50.174;2022-10-29T08:57:28;9.00;6.33;4.00
55441;PMS5003;41313;58.740;50.174;2022-10-29T09:02:33;10.67;10.00;6.00
55441;PMS5003;41313;58.740;50.174;2022-10-29T09:07:42;13.33;13.33;5.67
55441;PMS5003;41313;58.740;50.174;2022-10-29T09:13:06;9.67;9.67;6.00
55441;PMS5003;41313;58.740;50.174;2022-10-29T09:24:07;17.67;15.67;9.00
55441;PMS5003;41313;58.740;50.174;2022-10-29T09:34:42;13.33;13.33;7.00
55441;PMS5003;41313;58.740;50.174;2022-10-29T09:39:48;5.33;3.00;1.00
55441;PMS5003;41313;58.740;50.174;2022-10-29T09:44:55;18.33;15.67;7.67
55441;PMS5003;41313;58.740;50.174;2022-10-29T09:50:14;10.67;10.67;4.33
55441;PMS5003;41313;58.740;50.174;2022-10-29T09:55:50;9.33;9.33;6.00
55441;PMS5003;41313;58.740;50.174;2022-10-29T10:00:54;10.67;9.00;6.67
55441;PMS5003;41313;58.740;50.174;2022-10-29T10:06:00;22.33;19.33;9.67
55441;PMS5003;41313;58.740;50.174;2022-10-29T10:11:05;9.33;9.33;6.00
55441;PMS5003;41313;58.740;50.174;2022-10-29T10:16:07;10.67;10.67;6.67
55441;PMS5003;41313;58.740;50.174;2022-10-29T10:21:13;10.00;10.00;7.00
55441;PMS5003;41313;58.740;50.174;2022-10-29T10:26:33;10.33;10.33;6.67
55441;PMS5003;41313;58.740;50.174;2022-10-29T10:31:34;28.00;28.00;15.00
55441;PMS5003;41313;58.740;50.174;2022-10-29T10:36:37;13.67;13.67;6.67
55441;PMS5003;41313;58.740;50.174;2022-10-29T10:41:42;10.00;10.00;4.67
55441;PMS5003;41313;58.740;50.174;2022-10-29T10:46:44;18.00;15.33;10.00
55441;PMS5003;41313;58.740;50.174;2022-10-29T10:51:50;11.67;11.67;6.33
55441;PMS5003;41313;58.740;50.174;2022-10-29T10:56:58;15.33;12.33;5.33
55441;PMS5003;41313;58.740;50.174;2022-10-29T11:02:16;45.33;41.33;23.33
55441;PMS5003;41313;58.740;50.174;2022-10-29T11:07:19;21.67;20.67;11.33
55441;PMS5003;41313;58.740;50.174;2022-10-29T11:12:36;24.33;24.00;13.33
55441;PMS5003;41313;58.740;50.174;2022-10-29T11:17:52;25.33;25.00;16.00
55441;PMS5003;41313;58.740;50.174;2022-10-29T11:28:26;30.33;29.33;19.33
55441;PMS5003;41313;58.740;50.174;2022-10-29T11:33:40;23.67;23.67;13.67
55441;PMS5003;41313;58.740;50.174;2022-10-29T11:44:18;21.67;19.67;12.00
55441;PMS5003;41313;58.740;50.174;2022-10-29T11:49:34;42.67;39.33;19.00
55441;PMS5003;41313;58.740;50.174;2022-10-29T12:00:23;55.33;49.00;25.33
55441;PMS5003;41313;58.740;50.174;2022-10-29T12:21:50;31.67;30.00;17.33
55441;PMS5003;41313;58.740;50.174;2022-10-29T12:27:03;18.00;18.00;9.67
55441;PMS5003;41313;58.740;50.174;2022-10-29T12:37:34;16.67;16.67;10.67
55441;PMS5003;41313;58.740;50.174;2022-10-29T12:42:43;33.67;32.00;18.33
55441;PMS5003;41313;58.740;50.174;2022-10-29T12:53:18;17.67;15.00;9.67
55441;PMS5003;41313;58.740;50.174;2022-10-29T13:08:57;15.33;15.33;9.33
55441;PMS5003;41313;58.740;50.174;2022-10-29T13:19:43;15.67;14.33;9.00
55441;PMS5003;41313;58.740;50.174;2022-10-29T13:30:32;13.67;11.67;6.33
55441;PMS5003;41313;58.740;50.174;2022-10-29T13:46:12;21.00;20.67;12.33
55441;PMS5003;41313;58.740;50.174;2022-10-29T13:51:26;18.67;18.67;12.33
55441;PMS5003;41313;58.740;50.174;2022-10-29T13:56:44;21.67;21.33;13.33
55441;PMS5003;41313;58.740;50.174;2022-10-29T14:01:54;18.67;18.67;12.67
55441;PMS5003;41313;58.740;50.174;2022-10-29T14:07:03;28.67;27.67;21.67
55441;PMS5003;41313;58.740;50.174;2022-10-29T14:12:15;110.50;76.75;41.50
55441;PMS5003;41313;58.740;50.174;2022-10-29T14:17:20;173.25;112.50;49.00
55441;PMS5003;41313;58.740;50.174;2022-10-29T14:27:23;81.50;61.25;25.00
55441;PMS5003;41313;58.740;50.174;2022-10-29T14:32:25;46.00;41.67;24.33
55441;PMS5003;41313;58.740;50.174;2022-10-29T14:37:36;24.00;21.67;12.33
55441;PMS5003;41313;58.740;50.174;2022-10-29T14:42:44;24.00;24.00;13.00
55441;PMS5003;41313;58.740;50.174;2022-10-29T14:47:55;22.00;21.00;13.00
55441;PMS5003;41313;58.740;50.174;2022-10-29T14:52:59;36.67;32.33;20.67
55441;PMS5003;41313;58.740;50.174;2022-10-29T15:03:30;25.00;22.00;13.00
55441;PMS5003;41313;58.740;50.174;2022-10-29T15:08:36;54.00;45.00;30.00
55441;PMS5003;41313;58.740;50.174;2022-10-29T15:13:39;1.00;1.00;0.00
55441;PMS5003;41313;58.740;50.174;2022-10-29T15:18:43;31.67;31.00;22.00
55441;PMS5003;41313;58.740;50.174;2022-10-29T15:23:51;16.00;16.00;11.00
55441;PMS5003;41313;58.740;50.174;2022-10-29T15:28:58;11.33;11.33;9.00
55441;PMS5003;41313;58.740;50.174;2022-10-29T15:34:09;8.33;8.33;3.33
55441;PMS5003;41313;58.740;50.174;2022-10-29T15:44:36;11.33;11.33;7.00
55441;PMS5003;41313;58.740;50.174;2022-10-29T15:49:39;17.67;15.33;9.33
55441;PMS5003;41313;58.740;50.174;2022-10-29T15:54:40;23.67;20.67;15.33
55441;PMS5003;41313;58.740;50.174;2022-10-29T15:59:42;30.67;30.67;16.67
55441;PMS5003;41313;58.740;50.174;2022-10-29T16:04:44;36.67;34.33;22.00
55441;PMS5003;41313;58.740;50.174;2022-10-29T16:09:46;13.67;12.33;7.33
55441;PMS5003;41313;58.740;50.174;2022-10-29T16:14:50;13.33;13.33;8.33
55441;PMS5003;41313;58.740;50.174;2022-10-29T16:19:51;19.00;19.00;12.00
55441;PMS5003;41313;58.740;50.174;2022-10-29T16:24:53;12.67;12.67;7.67
55441;PMS5003;41313;58.740;50.174;2022-10-29T16:29:55;10.67;10.67;6.33
55441;PMS5003;41313;58.740;50.174;2022-10-29T16:34:57;9.33;9.33;6.33
55441;PMS5003;41313;58.740;50.174;2022-10-29T16:39:58;28.33;25.67;16.67
55441;PMS5003;41313;58.740;50.174;2022-10-29T16:45:00;13.33;12.67;9.00
55441;PMS5003;41313;58.740;50.174;2022-10-29T16:50:03;13.00;13.00;8.33
55441;PMS5003;41313;58.740;50.174;2022-10-29T16:55:05;10.33;10.33;5.67
55441;PMS5003;41313;58.740;50.174;2022-10-29T17:00:07;16.00;16.00;10.00
55441;PMS5003;41313;58.740;50.174;2022-10-29T17:05:09;6.67;6.67;4.00
55441;PMS5003;41313;58.740;50.174;2022-10-29T17:10:11;10.00;9.33;5.33
55441;PMS5003;41313;58.740;50.174;2022-10-29T17:15:13;9.00;6.67;3.00
55441;PMS5003;41313;58.740;50.174;2022-10-29T17:20:14;9.00;9.00;4.67
55441;PMS5003;41313;58.740;50.174;2022-10-29T17:25:16;4.00;4.00;1.67
55441;PMS5003;41313;58.740;50.174;2022-10-29T17:30:18;10.67;10.67;6.67
55441;PMS5003;41313;58.740;50.174;2022-10-29T17:35:19;14.67;14.33;7.67
55441;PMS5003;41313;58.740;50.174;2022-10-29T17:40:24;22.67;22.67;12.67
55441;PMS5003;41313;58.740;50.174;2022-10-29T17:45:26;12.33;12.33;7.67
55441;PMS5003;41313;58.740;50.174;2022-10-29T17:50:27;13.00;13.00;7.00
55441;PMS5003;41313;58.740;50.174;2022-10-29T17:55:29;15.67;15.67;9.33
55441;PMS5003;41313;58.740;50.174;2022-10-29T18:00:30;13.00;13.00;7.00
55441;PMS5003;41313;58.740;50.174;2022-10-29T18:05:32;6.00;6.00;3.67
55441;PMS5003;41313;58.740;50.174;2022-10-29T18:10:34;9.33;9.33;6.33
55441;PMS5003;41313;58.740;50.174;2022-10-29T18:15:35;12.67;11.33;4.00
55441;PMS5003;41313;58.740;50.174;2022-10-29T18:20:37;7.67;7.67;4.67
55441;PMS5003;41313;58.740;50.174;2022-10-29T18:25:39;3.67;3.67;0.00
55441;PMS5003;41313;58.740;50.174;2022-10-29T18:30:40;8.67;8.67;6.33
55441;PMS5003;41313;58.740;50.174;2022-10-29T18:35:41;12.33;12.00;7.00
55441;PMS5003;41313;58.740;50.174;2022-10-29T18:40:43;12.33;9.33;6.00
55441;PMS5003;41313;58.740;50.174;2022-10-29T18:45:55;4.33;4.33;2.33
55441;PMS5003;41313;58.740;50.174;2022-10-29T18:51:01;10.33;7.67;4.67
55441;PMS5003;41313;58.740;50.174;2022-10-29T18:56:09;7.33;7.33;4.67
55441;PMS5003;41313;58.740;50.174;2022-10-29T19:01:19;11.00;10.00;5.33
55441;PMS5003;41313;58.740;50.174;2022-10-29T19:06:23;3.33;3.33;0.67
55441;PMS5003;41313;58.740;50.174;2022-10-29T19:11:26;3.00;3.00;1.00
55441;PMS5003;41313;58.740;50.174;2022-10-29T19:16:29;4.00;4.00;3.00
55441;PMS5003;41313;58.740;50.174;2022-10-29T19:21:33;6.67;4.67;1.67
55441;PMS5003;41313;58.740;50.174;2022-10-29T19:26:35;3.33;3.33;3.00
55441;PMS5003;41313;58.740;50.174;2022-10-29T19:31:36;4.00;4.00;3.00
55441;PMS5003;41313;58.740;50.174;2022-10-29T19:36:38;4.67;4.67;3.00
55441;PMS5003;41313;58.740;50.174;2022-10-29T19:41:40;7.00;7.00;3.00
55441;PMS5003;41313;58.740;50.174;2022-10-29T19:46:41;7.67;7.67;4.00
55441;PMS5003;41313;58.740;50.174;2022-10-29T19:51:43;5.67;5.67;1.67
55441;PMS5003;41313;58.740;50.174;2022-10-29T19:56:46;3.00;3.00;3.00
55441;PMS5003;41313;58.740;50.174;2022-10-29T20:01:47;6.00;6.00;3.00
55441;PMS5003;41313;58.740;50.174;2022-10-29T20:06:49;7.00;7.00;4.00
55441;PMS5003;41313;58.740;50.174;2022-10-29T20:11:51;8.67;8.67;5.33
55441;PMS5003;41313;58.740;50.174;2022-10-29T20:16:52;5.00;5.00;3.33
55441;PMS5003;41313;58.740;50.174;2022-10-29T20:21:54;5.67;5.67;4.00
55441;PMS5003;41313;58.740;50.174;2022-10-29T20:26:55;10.33;10.33;5.67
55441;PMS5003;41313;58.740;50.174;2022-10-29T20:31:57;10.67;10.67;7.00
55441;PMS5003;41313;58.740;50.174;2022-10-29T20:36:58;9.00;7.67;4.00
55441;PMS5003;41313;58.740;50.174;2022-10-29T20:41:59;9.67;9.67;6.67
55441;PMS5003;41313;58.740;50.174;2022-10-29T20:47:01;10.67;10.67;6.00
55441;PMS5003;41313;58.740;50.174;2022-10-29T20:52:03;10.00;10.00;6.00
55441;PMS5003;41313;58.740;50.174;2022-10-29T20:57:07;9.00;9.00;6.33
55441;PMS5003;41313;58.740;50.174;2022-10-29T21:02:09;9.33;9.33;6.00
55441;PMS5003;41313;58.740;50.174;2022-10-29T21:07:11;9.67;9.00;4.00
55441;PMS5003;41313;58.740;50.174;2022-10-29T21:12:12;10.00;10.00;7.00
55441;PMS5003;41313;58.740;50.174;2022-10-29T21:17:14;12.67;12.00;6.67
55441;PMS5003;41313;58.740;50.174;2022-10-29T21:22:16;1.00;1.00;0.00
55441;PMS5003;41313;58.740;50.174;2022-10-29T21:27:18;12.33;12.33;9.00
55441;PMS5003;41313;58.740;50.174;2022-10-29T21:32:20;15.00;12.00;9.33
55441;PMS5003;41313;58.740;50.174;2022-10-29T21:37:21;10.67;10.67;7.00
55441;PMS5003;41313;58.740;50.174;2022-10-29T21:42:23;10.00;10.00;7.00
55441;PMS5003;41313;58.740;50.174;2022-10-29T21:47:24;12.33;11.33;7.00
55441;PMS5003;41313;58.740;50.174;2022-10-29T21:52:25;7.00;7.00;5.33
55441;PMS5003;41313;58.740;50.174;2022-10-29T21:57:27;9.33;9.33;6.00
55441;PMS5003;41313;58.740;50.174;2022-10-29T22:02:30;10.67;10.00;7.00
55441;PMS5003;41313;58.740;50.174;2022-10-29T22:07:32;9.33;9.33;6.00
55441;PMS5003;41313;58.740;50.174;2022-10-29T22:12:34;4.67;4.67;3.00
55441;PMS5003;41313;58.740;50.174;2022-10-29T22:17:36;4.00;4.00;3.00
55441;PMS5003;41313;58.740;50.174;2022-10-29T22:22:37;5.33;5.33;3.00
55441;PMS5003;41313;58.740;50.174;2022-10-29T22:27:39;4.00;4.00;3.00
55441;PMS5003;41313;58.740;50.174;2022-10-29T22:32:40;1.00;1.00;0.67
55441;PMS5003;41313;58.740;50.174;2022-10-29T22:37:42;4.00;4.00;1.00
55441;PMS5003;41313;58.740;50.174;2022-10-29T22:42:43;3.33;3.33;3.00
55441;PMS5003;41313;58.740;50.174;2022-10-29T22:47:44;9.00;9.00;6.00
55441;PMS5003;41313;58.740;50.174;2022-10-29T22:52:46;9.00;8.33;6.00
55441;PMS5003;41313;58.740;50.174;2022-10-29T22:57:47;4.67;4.67;3.33
55441;PMS5003;41313;58.740;50.174;2022-10-29T23:02:49;9.00;9.00;4.67
55441;PMS5003;41313;58.740;50.174;2022-10-29T23:07:50;7.00;7.00;4.00
55441;PMS5003;41313;58.740;50.174;2022-10-29T23:12:52;6.33;6.33;4.00
55441;PMS5003;41313;58.740;50.174;2022-10-29T23:17:53;3.33;3.33;3.00
55441;PMS5003;41313;58.740;50.174;2022-10-29T23:22:55;6.00;6.00;1.67
55441;PMS5003;41313;58.740;50.174;2022-10-29T23:27:56;3.33;3.33;2.33
55441;PMS5003;41313;58.740;50.174;2022-10-29T23:32:58;8.33;8.33;6.00
55441;PMS5003;41313;58.740;50.174;2022-10-29T23:38:00;4.00;4.00;1.67
55441;PMS5003;41313;58.740;50.174;2022-10-29T23:43:02;7.67;7.67;4.67
55441;PMS5003;41313;58.740;50.174;2022-10-29T23:48:03;3.67;3.67;2.33
55441;PMS5003;41313;58.740;50.174;2022-10-29T23:53:05;3.33;3.33;2.33
55441;PMS5003;41313;58.740;50.174;2022-10-29T23:58:08;6.00;6.00;3.33
